Time;durP1;ratioP1;P1;durP2;ratioP2;P2;SDS_P1;SDS_P2;PMS_P1;PMS_P2;Temp;Humidity;BMP_temperature;BMP_pressure;BME280_temperature;BME280_humidity;BME280_pressure;Samples;Min_cycle;Max_cycle;Signal;HPM_P1;HPM_P2
2022/10/01 00:01:55;;;;;;;8.43;4.70;;;;;;;11.64;80.39;100180.66;4991552;28;20206;-61
2022/10/01 00:04:23;;;;;;;8.17;5.13;;;;;;;11.70;80.03;100181.84;4992737;28;20210;-61
2022/10/01 00:06:52;;;;;;;11.53;5.30;;;;;;;11.68;79.82;100179.38;4992050;28;20212;-61
2022/10/01 00:09:20;;;;;;;8.73;5.20;;;;;;;11.61;80.34;100177.50;4993163;28;20721;-61
2022/10/01 00:11:47;;;;;;;6.80;4.70;;;;;;;11.61;80.63;100167.69;4991280;28;20230;-61
2022/10/01 00:14:16;;;;;;;10.03;5.10;;;;;;;11.63;80.05;100165.72;4988005;28;20214;-61
2022/10/01 00:16:43;;;;;;;8.03;4.70;;;;;;;11.59;80.47;100163.56;4988193;28;20234;-61
2022/10/01 00:19:12;;;;;;;11.50;5.23;;;;;;;11.53;80.88;100170.34;4991609;28;20277;-61
2022/10/01 00:21:40;;;;;;;10.57;4.83;;;;;;;11.53;81.28;100153.56;4991203;28;20255;-61
2022/10/01 00:24:12;;;;;;;9.93;5.03;;;;;;;11.54;80.83;100156.06;4991885;28;20582;-61
2022/10/01 00:26:40;;;;;;;8.53;5.30;;;;;;;11.53;81.20;100162.38;4991531;28;20200;-61
2022/10/01 00:29:13;;;;;;;9.00;5.70;;;;;;;11.46;81.64;100158.69;4988030;28;20219;-61
2022/10/01 00:31:40;;;;;;;8.73;5.67;;;;;;;11.43;82.04;100151.09;4990770;28;20232;-61
2022/10/01 00:34:11;;;;;;;7.77;5.47;;;;;;;11.42;82.16;100141.44;4991119;28;20782;-61
2022/10/01 00:36:39;;;;;;;8.33;5.90;;;;;;;11.44;81.96;100134.13;4991471;28;20241;-60
2022/10/01 00:39:10;;;;;;;12.03;5.77;;;;;;;11.44;82.06;100139.44;4991107;28;20215;-61
2022/10/01 00:41:38;;;;;;;10.97;5.87;;;;;;;11.45;82.23;100132.31;4990808;28;20248;-61
2022/10/01 00:44:28;;;;;;;11.50;6.13;;;;;;;11.41;82.73;100131.81;4990619;28;20222;-62
2022/10/01 00:46:58;;;;;;;12.10;5.90;;;;;;;11.42;83.00;100125.53;4991502;28;20237;-61
2022/10/01 00:49:30;;;;;;;13.53;6.27;;;;;;;11.41;83.49;100123.03;4990971;28;20206;-61
2022/10/01 00:52:02;;;;;;;10.67;6.70;;;;;;;11.44;83.22;100131.47;4984098;28;20860;-61
2022/10/01 00:54:37;;;;;;;14.00;6.60;;;;;;;11.42;83.68;100136.13;4991259;28;20293;-62
2022/10/01 00:57:06;;;;;;;9.17;6.37;;;;;;;11.46;83.49;100129.50;4989562;28;20293;-60
2022/10/01 00:59:35;;;;;;;11.30;6.63;;;;;;;11.47;83.52;100128.50;4991249;28;20252;-61
2022/10/01 01:02:03;;;;;;;11.57;6.50;;;;;;;11.49;83.30;100126.53;4990661;28;20569;-62
2022/10/01 01:04:31;;;;;;;9.87;6.47;;;;;;;11.52;83.11;100122.72;4989521;28;20225;-61
2022/10/01 01:07:02;;;;;;;12.47;6.97;;;;;;;11.57;82.89;100117.75;4984173;28;20207;-61
2022/10/01 01:09:35;;;;;;;9.50;6.50;;;;;;;11.57;82.79;100117.75;4984147;28;20609;-60
2022/10/01 01:12:12;;;;;;;10.03;6.67;;;;;;;11.57;83.07;100115.09;4989885;28;20213;-60
2022/10/01 01:14:46;;;;;;;12.10;7.10;;;;;;;11.59;83.10;100111.28;4991243;28;20210;-61
2022/10/01 01:17:23;;;;;;;11.07;7.33;;;;;;;11.59;83.02;100110.47;4991227;28;20243;-61
2022/10/01 01:20:12;;;;;;;10.03;7.10;;;;;;;11.57;83.40;100113.28;4991047;28;20355;-61
2022/10/01 01:22:47;;;;;;;13.17;6.63;;;;;;;11.62;82.96;100120.72;4980155;28;20265;-61
2022/10/01 01:25:19;;;;;;;12.03;6.80;;;;;;;11.65;82.45;100115.94;4989962;28;20271;-61
2022/10/01 01:27:57;;;;;;;12.30;7.20;;;;;;;11.62;82.92;100126.03;4987251;28;20209;-61
2022/10/01 01:30:26;;;;;;;16.53;7.37;;;;;;;11.68;82.40;100114.78;4990464;28;20204;-61
2022/10/01 01:33:03;;;;;;;10.43;7.23;;;;;;;11.68;82.29;100110.31;4990051;28;20305;-60
2022/10/01 01:35:35;;;;;;;10.63;6.37;;;;;;;11.67;82.50;100119.25;4990653;28;20227;-61
2022/10/01 01:38:09;;;;;;;10.93;6.63;;;;;;;11.69;82.47;100101.34;4990293;28;20335;-61
2022/10/01 01:40:41;;;;;;;16.23;6.87;;;;;;;11.74;82.01;100107.97;4990829;28;20220;-61
2022/10/01 01:43:18;;;;;;;11.97;7.10;;;;;;;11.74;81.86;100102.66;4993944;28;20267;-61
2022/10/01 01:45:48;;;;;;;13.30;7.13;;;;;;;11.75;81.65;100099.88;4994730;28;20216;-60
2022/10/01 01:48:15;;;;;;;10.73;6.80;;;;;;;11.77;81.59;100083.78;4994853;28;20212;-61
2022/10/01 01:50:50;;;;;;;8.70;6.40;;;;;;;11.80;81.13;100086.09;4993803;28;20236;-61
2022/10/01 01:53:19;;;;;;;9.57;6.47;;;;;;;11.79;80.73;100084.44;4993457;28;20685;-61
2022/10/01 01:55:48;;;;;;;11.97;7.10;;;;;;;11.75;81.17;100083.09;4988234;28;20660;-61
2022/10/01 01:58:18;;;;;;;13.30;7.20;;;;;;;11.77;81.05;100074.00;4994014;28;20251;-61
2022/10/01 02:00:51;;;;;;;11.57;6.63;;;;;;;11.81;80.89;100071.81;4993847;28;20664;-62
2022/10/01 02:03:20;;;;;;;13.43;7.07;;;;;;;11.82;80.75;100068.16;4994109;28;20269;-61
2022/10/01 02:05:57;;;;;;;12.67;6.63;;;;;;;11.83;80.55;100075.97;4993275;28;20220;-61
2022/10/01 02:08:34;;;;;;;12.80;7.03;;;;;;;11.81;80.90;100064.69;4980205;28;20205;-60
2022/10/01 02:11:20;;;;;;;11.80;7.03;;;;;;;11.84;80.95;100071.50;4987940;28;20264;-60
2022/10/01 02:14:01;;;;;;;15.20;7.37;;;;;;;11.86;80.64;100072.16;4982807;28;20220;-61
2022/10/01 02:16:33;;;;;;;11.13;7.00;;;;;;;11.87;80.59;100073.84;4973740;28;20220;-62
2022/10/01 02:19:05;;;;;;;10.30;6.83;;;;;;;11.86;80.63;100069.50;4994407;28;20255;-61
2022/10/01 02:21:39;;;;;;;10.30;7.00;;;;;;;11.83;80.76;100073.31;4993650;28;20438;-62
2022/10/01 02:24:13;;;;;;;10.43;7.10;;;;;;;11.84;80.66;100061.69;4993499;28;20213;-62
2022/10/01 02:26:43;;;;;;;10.27;6.63;;;;;;;11.84;80.72;100071.50;4993848;28;20213;-62
2022/10/01 02:29:15;;;;;;;11.83;7.53;;;;;;;11.78;81.32;100067.69;4993890;28;20613;-61
2022/10/01 02:31:47;;;;;;;9.90;6.53;;;;;;;11.79;81.48;100068.50;4993952;28;20357;-60
2022/10/01 02:34:17;;;;;;;12.30;6.60;;;;;;;11.89;80.76;100069.16;4993781;28;20642;-62
2022/10/01 02:36:49;;;;;;;12.50;7.47;;;;;;;11.88;80.83;100062.19;4993689;28;20274;-62
2022/10/01 02:39:19;;;;;;;12.57;6.57;;;;;;;11.89;81.04;100058.53;4989784;28;20295;-62
2022/10/01 02:41:50;;;;;;;12.00;6.47;;;;;;;11.89;81.18;100053.22;4993176;28;20209;-62
2022/10/01 02:44:22;;;;;;;10.03;6.70;;;;;;;11.88;81.52;100041.75;4994375;28;20220;-62
2022/10/01 02:46:56;;;;;;;9.67;6.63;;;;;;;11.90;81.79;100042.44;4992093;28;20217;-62
2022/10/01 02:49:25;;;;;;;13.17;6.53;;;;;;;11.86;82.43;100034.97;4991430;28;20198;-62
2022/10/01 02:52:07;;;;;;;9.50;6.60;;;;;;;11.87;82.84;100032.16;4984946;28;20255;-62
2022/10/01 02:54:38;;;;;;;10.43;6.00;;;;;;;11.91;82.84;100035.28;4992579;28;20548;-62
2022/10/01 02:57:26;;;;;;;11.20;6.60;;;;;;;12.00;82.10;100024.50;4993773;28;20228;-62
2022/10/01 02:59:57;;;;;;;9.20;6.00;;;;;;;11.98;82.61;100021.16;4993365;28;20213;-62
2022/10/01 03:02:26;;;;;;;10.13;6.17;;;;;;;12.01;82.42;100012.88;4992297;28;20212;-62
2022/10/01 03:04:55;;;;;;;12.73;6.20;;;;;;;12.02;82.58;100011.03;4993622;28;20221;-62
2022/10/01 03:07:23;;;;;;;10.80;6.00;;;;;;;12.08;82.10;99999.72;4994075;28;20213;-62
2022/10/01 03:09:51;;;;;;;9.07;5.80;;;;;;;12.04;82.32;100004.56;4993584;28;20292;-61
2022/10/01 03:12:19;;;;;;;9.97;6.20;;;;;;;12.09;82.22;100006.72;4993187;28;20217;-62
2022/10/01 03:14:47;;;;;;;8.77;5.97;;;;;;;12.11;81.86;99993.25;4993656;28;20203;-61
2022/10/01 03:17:16;;;;;;;9.40;5.33;;;;;;;12.10;82.14;100005.72;4987741;28;20305;-61
2022/10/01 03:19:44;;;;;;;8.47;4.83;;;;;;;12.14;81.90;100001.69;4993576;28;20745;-60
2022/10/01 03:22:14;;;;;;;7.03;4.93;;;;;;;12.17;81.84;100006.69;4993077;28;20214;-61
2022/10/01 03:24:42;;;;;;;7.70;5.40;;;;;;;12.17;81.78;100006.69;4992103;28;20641;-62
2022/10/01 03:27:09;;;;;;;8.87;5.07;;;;;;;12.17;82.02;99998.72;4992918;28;20423;-61
2022/10/01 03:29:37;;;;;;;10.23;5.83;;;;;;;12.26;81.78;99997.69;4992531;28;20205;-62
2022/10/01 03:32:04;;;;;;;9.17;5.33;;;;;;;12.31;81.28;100003.31;4989105;28;20234;-62
2022/10/01 03:34:33;;;;;;;11.47;5.40;;;;;;;12.28;81.16;99995.69;4993180;28;20222;-61
2022/10/01 03:37:01;;;;;;;8.60;5.00;;;;;;;12.28;81.17;99990.38;4993456;28;20269;-62
2022/10/01 03:39:29;;;;;;;8.03;5.30;;;;;;;12.34;80.68;99988.88;4985485;28;20293;-62
2022/10/01 03:41:57;;;;;;;7.63;4.67;;;;;;;12.34;80.26;99995.00;4986436;28;20220;-61
2022/10/01 03:44:24;;;;;;;6.10;4.30;;;;;;;12.23;80.89;99992.72;4993706;28;20209;-62
2022/10/01 03:46:52;;;;;;;9.50;4.67;;;;;;;12.22;80.84;99979.63;4991161;28;20214;-62
2022/10/01 03:49:20;;;;;;;7.40;4.83;;;;;;;12.28;80.21;99990.38;4992553;28;20203;-62
2022/10/01 03:51:49;;;;;;;8.67;4.80;;;;;;;12.25;80.88;99990.72;4992239;28;20269;-62
2022/10/01 03:54:19;;;;;;;7.57;4.70;;;;;;;12.30;80.44;99985.72;4993296;28;20245;-62
2022/10/01 03:56:47;;;;;;;5.97;4.00;;;;;;;12.29;80.50;99985.91;4993766;28;20210;-62
2022/10/01 03:59:15;;;;;;;7.70;5.03;;;;;;;12.29;80.88;99981.41;4993022;28;20687;-61
2022/10/01 04:01:43;;;;;;;6.97;4.63;;;;;;;12.24;81.59;99981.06;4992066;28;20214;-61
2022/10/01 04:04:10;;;;;;;10.47;4.80;;;;;;;12.26;81.73;99983.56;4992703;28;20214;-61
2022/10/01 04:06:38;;;;;;;9.97;4.60;;;;;;;12.17;82.74;99980.09;4992684;28;20214;-61
2022/10/01 04:09:08;;;;;;;8.27;5.00;;;;;;;12.16;83.32;99978.44;4992827;28;20287;-60
2022/10/01 04:11:36;;;;;;;7.17;4.70;;;;;;;12.19;83.66;99980.78;4992046;28;20244;-60
2022/10/01 04:14:04;;;;;;;10.37;4.80;;;;;;;12.09;84.91;99987.28;4991534;28;20210;-61
2022/10/01 04:16:34;;;;;;;7.83;4.80;;;;;;;12.11;85.35;99991.44;4991479;28;20748;-61
2022/10/01 04:19:03;;;;;;;6.87;5.07;;;;;;;12.10;85.70;99992.41;4991535;28;20233;-61
2022/10/01 04:21:30;;;;;;;9.07;5.17;;;;;;;12.09;86.21;99993.41;4990688;28;20221;-60
2022/10/01 04:23:59;;;;;;;8.23;4.93;;;;;;;12.09;86.59;99985.44;4984929;28;20579;-60
2022/10/01 04:26:28;;;;;;;9.00;5.17;;;;;;;12.07;86.91;99990.09;4992041;28;20245;-61
2022/10/01 04:28:56;;;;;;;9.40;5.00;;;;;;;12.06;87.29;99980.47;4992817;28;20534;-61
2022/10/01 04:31:24;;;;;;;9.37;5.00;;;;;;;12.05;87.57;99984.94;4989354;28;20229;-59
2022/10/01 04:33:52;;;;;;;7.60;5.30;;;;;;;12.02;87.99;99974.66;4991799;28;20246;-61
2022/10/01 04:36:20;;;;;;;11.33;5.00;;;;;;;11.98;88.54;99972.50;4992581;28;20272;-62
2022/10/01 04:38:51;;;;;;;8.83;5.10;;;;;;;11.99;88.60;99974.16;4991567;28;20229;-61
2022/10/01 04:41:19;;;;;;;9.23;4.80;;;;;;;11.97;88.83;99970.84;4979406;28;20249;-62
2022/10/01 04:43:48;;;;;;;6.90;4.80;;;;;;;11.93;89.20;99964.22;4991777;28;20206;-60
2022/10/01 04:46:16;;;;;;;8.13;5.07;;;;;;;11.87;90.32;99960.44;4986893;28;20273;-61
2022/10/01 04:48:44;;;;;;;7.73;4.97;;;;;;;11.89;90.19;99963.72;4992359;28;20234;-62
2022/10/01 04:51:11;;;;;;;8.73;4.93;;;;;;;11.90;90.43;99960.06;4991354;28;20214;-62
2022/10/01 04:53:39;;;;;;;8.33;5.47;;;;;;;11.87;90.31;99957.78;4992592;28;20221;-61
2022/10/01 04:56:07;;;;;;;8.03;5.30;;;;;;;11.86;90.58;99964.06;4992298;28;20210;-61
2022/10/01 04:58:34;;;;;;;7.33;5.07;;;;;;;11.90;90.65;99959.22;4991028;28;20230;-61
2022/10/01 05:01:03;;;;;;;10.37;5.13;;;;;;;11.88;90.51;99961.22;4990926;28;20243;-62
2022/10/01 05:03:31;;;;;;;9.20;5.10;;;;;;;11.84;91.22;99957.25;4990011;28;20217;-61
2022/10/01 05:05:59;;;;;;;7.17;4.47;;;;;;;11.79;91.53;99956.91;4991880;28;20241;-61
2022/10/01 05:08:27;;;;;;;9.83;5.70;;;;;;;11.77;92.07;99946.50;4991534;28;20220;-62
2022/10/01 05:10:55;;;;;;;11.27;5.23;;;;;;;11.76;92.40;99941.34;4991179;28;20555;-60
2022/10/01 05:13:22;;;;;;;8.63;5.27;;;;;;;11.78;92.28;99932.22;4989528;28;20268;-61
2022/10/01 05:15:52;;;;;;;8.73;5.60;;;;;;;11.83;92.17;99937.84;4995931;28;20824;-62
2022/10/01 05:18:21;;;;;;;8.73;5.20;;;;;;;11.81;92.29;99921.22;4994221;28;20309;-62
2022/10/01 05:20:49;;;;;;;8.63;5.00;;;;;;;11.81;92.35;99907.94;4993158;28;20232;-62
2022/10/01 05:23:16;;;;;;;10.07;5.30;;;;;;;11.79;92.56;99914.41;4995787;28;20659;-61
2022/10/01 05:25:45;;;;;;;7.67;5.30;;;;;;;11.81;92.74;99907.13;4995921;28;20282;-62
2022/10/01 05:28:13;;;;;;;10.90;5.33;;;;;;;11.79;92.55;99906.44;4995741;28;20674;-62
2022/10/01 05:30:48;;;;;;;9.00;5.13;;;;;;;11.80;92.51;99900.16;4994721;28;20258;-62
2022/10/01 05:33:16;;;;;;;9.07;4.90;;;;;;;11.83;92.92;99891.84;4994688;28;20278;-62
2022/10/01 05:35:45;;;;;;;9.47;4.83;;;;;;;11.81;92.79;99892.00;4995391;28;20209;-62
2022/10/01 05:38:13;;;;;;;8.30;5.30;;;;;;;11.80;93.29;99890.34;4995379;28;20221;-62
2022/10/01 05:40:45;;;;;;;8.97;5.30;;;;;;;11.85;92.77;99911.09;4994451;28;20368;-62
2022/10/01 05:43:13;;;;;;;8.03;5.03;;;;;;;11.80;92.93;99908.13;4995030;28;20217;-62
2022/10/01 05:45:41;;;;;;;11.87;4.73;;;;;;;11.84;93.00;99904.13;4995385;28;20700;-62
2022/10/01 05:48:09;;;;;;;9.03;5.27;;;;;;;11.81;92.87;99909.78;4994946;28;20212;-60
2022/10/01 05:50:39;;;;;;;7.87;4.67;;;;;;;11.75;93.43;99913.13;4994660;28;20210;-61
2022/10/01 05:53:09;;;;;;;6.70;4.30;;;;;;;11.77;93.70;99896.03;4982377;28;20214;-60
2022/10/01 05:55:37;;;;;;;7.57;4.80;;;;;;;11.78;93.51;99886.22;4995424;28;20218;-61
2022/10/01 05:58:06;;;;;;;8.37;4.50;;;;;;;11.76;94.05;99894.38;4995145;28;20609;-61
2022/10/01 06:00:34;;;;;;;7.47;4.50;;;;;;;11.78;93.88;99902.16;4994247;28;20293;-62
2022/10/01 06:03:03;;;;;;;8.77;4.50;;;;;;;11.84;93.51;99912.94;4993943;28;20220;-62
2022/10/01 06:05:33;;;;;;;8.50;4.20;;;;;;;11.83;93.46;99913.94;4995117;28;20312;-61
2022/10/01 06:08:01;;;;;;;7.33;4.33;;;;;;;11.83;93.29;99895.34;4994757;28;20212;-61
2022/10/01 06:10:30;;;;;;;8.53;4.50;;;;;;;11.79;93.33;99888.69;4993929;28;20745;-61
2022/10/01 06:13:00;;;;;;;7.10;4.70;;;;;;;11.85;92.85;99890.69;4988015;28;20567;-61
2022/10/01 06:15:29;;;;;;;9.13;4.90;;;;;;;11.86;92.98;99883.56;4994777;28;20215;-62
2022/10/01 06:17:56;;;;;;;7.87;4.73;;;;;;;11.87;92.92;99890.53;4992984;28;20278;-62
2022/10/01 06:20:24;;;;;;;6.93;3.97;;;;;;;11.86;92.94;99889.69;4993883;28;20228;-61
2022/10/01 06:22:56;;;;;;;8.23;4.30;;;;;;;11.90;92.98;99901.63;4988390;28;20237;-62
2022/10/01 06:25:29;;;;;;;7.70;3.80;;;;;;;11.88;93.29;99892.97;4984769;28;20266;-60
2022/10/01 06:27:59;;;;;;;6.63;4.03;;;;;;;11.88;93.31;99886.84;4986377;28;20215;-61
2022/10/01 06:30:29;;;;;;;6.47;3.97;;;;;;;11.88;93.12;99889.50;4992664;28;20209;-61
2022/10/01 06:33:00;;;;;;;8.90;4.07;;;;;;;11.87;93.35;99887.88;4979438;28;20249;-62
2022/10/01 06:35:28;;;;;;;7.37;4.40;;;;;;;11.83;94.45;99892.69;4989830;28;20209;-61
2022/10/01 06:37:56;;;;;;;8.30;4.10;;;;;;;11.83;94.04;99895.34;4986802;28;20869;-62
2022/10/01 06:40:23;;;;;;;9.17;4.60;;;;;;;11.88;93.55;99887.66;4980633;28;20237;-61
2022/10/01 06:42:51;;;;;;;8.33;3.90;;;;;;;11.90;94.01;99891.00;4980692;28;20208;-62
2022/10/01 06:45:25;;;;;;;15.23;4.77;;;;;;;11.93;93.75;99882.69;4994386;28;20206;-61
2022/10/01 06:47:56;;;;;;;6.40;4.00;;;;;;;11.92;94.51;99893.47;4994543;28;20638;-63
2022/10/01 06:50:25;;;;;;;8.60;4.03;;;;;;;11.93;94.21;99887.16;4991395;28;20215;-63
2022/10/01 06:52:53;;;;;;;6.67;4.43;;;;;;;11.91;94.65;99889.16;4993561;28;20732;-60
2022/10/01 06:55:21;;;;;;;7.47;4.87;;;;;;;11.94;94.78;99883.53;4989683;28;20237;-61
2022/10/01 06:57:54;;;;;;;10.60;4.50;;;;;;;11.99;94.08;99881.16;4994150;28;20652;-62
2022/10/01 07:00:22;;;;;;;11.33;4.50;;;;;;;11.92;94.21;99872.22;4992839;28;20321;-61
2022/10/01 07:02:51;;;;;;;6.50;4.27;;;;;;;11.91;95.04;99886.50;4993088;28;20748;-62
2022/10/01 07:05:18;;;;;;;6.17;3.67;;;;;;;11.95;95.36;99885.19;4993056;28;20206;-60
2022/10/01 07:07:47;;;;;;;8.33;4.30;;;;;;;11.94;95.48;99880.88;4992818;28;20217;-62
2022/10/01 07:10:16;;;;;;;6.20;3.97;;;;;;;12.02;95.00;99875.53;4992240;28;20228;-62
2022/10/01 07:12:44;;;;;;;6.63;3.90;;;;;;;11.99;94.84;99875.84;4992767;28;20215;-62
2022/10/01 07:15:12;;;;;;;8.77;3.93;;;;;;;11.95;95.72;99872.72;4993621;28;20583;-62
2022/10/01 07:17:44;;;;;;;6.40;4.20;;;;;;;11.98;96.18;99858.25;4992664;28;20213;-61
2022/10/01 07:20:16;;;;;;;8.50;4.67;;;;;;;11.97;96.01;99856.59;4992457;28;20641;-61
2022/10/01 07:22:44;;;;;;;7.43;4.47;;;;;;;11.98;96.67;99863.56;4992891;28;20211;-62
2022/10/01 07:25:13;;;;;;;9.83;4.47;;;;;;;11.98;96.36;99872.38;4992890;28;20216;-62
2022/10/01 07:27:41;;;;;;;6.67;4.23;;;;;;;12.00;96.67;99888.13;4992210;28;20212;-62
2022/10/01 07:30:09;;;;;;;6.43;4.20;;;;;;;12.00;96.57;99890.78;4990174;28;20214;-63
2022/10/01 07:32:37;;;;;;;7.17;3.70;;;;;;;11.98;96.97;99882.16;4991856;28;20705;-60
2022/10/01 07:35:05;;;;;;;5.53;3.70;;;;;;;12.00;97.17;99880.16;4992709;28;20644;-63
2022/10/01 07:37:34;;;;;;;6.63;4.03;;;;;;;12.04;97.43;99876.19;4992303;28;20213;-62
2022/10/01 07:40:02;;;;;;;6.87;3.63;;;;;;;12.04;97.43;99878.84;4982062;28;20234;-61
2022/10/01 07:42:34;;;;;;;5.23;3.57;;;;;;;12.07;97.16;99883.78;4989904;28;20216;-62
2022/10/01 07:45:03;;;;;;;6.27;3.97;;;;;;;12.08;97.35;99877.47;4993177;28;20220;-62
2022/10/01 07:47:31;;;;;;;8.83;3.87;;;;;;;12.06;97.57;99885.63;4992768;28;20205;-63
2022/10/01 07:49:58;;;;;;;8.33;4.10;;;;;;;12.05;98.15;99883.13;4985810;28;20212;-62
2022/10/01 07:52:26;;;;;;;4.70;3.13;;;;;;;12.06;98.18;99885.63;4992360;28;20213;-62
2022/10/01 07:54:55;;;;;;;4.33;2.73;;;;;;;12.04;98.28;99879.69;4992962;28;20225;-61
2022/10/01 07:57:22;;;;;;;8.20;3.50;;;;;;;11.98;99.32;99884.81;4991457;28;20736;-62
2022/10/01 07:59:50;;;;;;;6.40;3.17;;;;;;;12.02;99.56;99878.19;4992291;28;20204;-61
2022/10/01 08:02:22;;;;;;;6.57;3.93;;;;;;;12.04;99.95;99884.16;4993095;28;20212;-62
2022/10/01 08:07:35;;;;;;;10.97;3.83;;;;;;;12.07;99.53;99881.13;4989167;28;20272;-61
2022/10/01 08:10:05;;;;;;;5.97;3.63;;;;;;;12.04;100.00;99870.88;4990924;28;20652;-61
2022/10/01 08:12:33;;;;;;;10.53;4.60;;;;;;;12.06;100.00;99871.50;4991361;28;20996;-61
2022/10/01 08:15:01;;;;;;;6.53;3.33;;;;;;;12.09;100.00;99873.81;4991105;28;20213;-62
2022/10/01 08:17:29;;;;;;;5.70;3.30;;;;;;;12.12;100.00;99870.84;4992325;28;20221;-62
2022/10/01 08:19:57;;;;;;;10.23;3.47;;;;;;;12.13;100.00;99869.00;4991658;28;20579;-61
2022/10/01 08:22:24;;;;;;;7.60;3.20;;;;;;;12.20;99.91;99859.34;4991545;28;20691;-62
2022/10/01 08:24:52;;;;;;;7.57;3.50;;;;;;;12.14;100.00;99838.78;4990682;28;20214;-62
2022/10/01 08:27:23;;;;;;;8.23;3.17;;;;;;;12.20;100.00;99822.13;4991066;28;20710;-62
2022/10/01 08:29:51;;;;;;;5.10;3.60;;;;;;;12.19;99.57;99837.25;4992347;28;20217;-62
2022/10/01 08:32:19;;;;;;;5.67;3.30;;;;;;;12.19;100.00;99876.28;4991172;28;20243;-61
2022/10/01 08:34:48;;;;;;;9.30;4.63;;;;;;;12.20;100.00;99875.28;4992676;28;20644;-63
2022/10/01 08:37:26;;;;;;;7.30;3.67;;;;;;;12.18;100.00;99882.59;4990606;28;20997;-61
2022/10/01 08:39:54;;;;;;;7.93;3.43;;;;;;;12.23;100.00;99893.53;4986112;28;20256;-61
2022/10/01 08:42:41;;;;;;;8.27;4.07;;;;;;;12.26;100.00;99891.38;4992421;28;20280;-60
2022/10/01 08:45:14;;;;;;;12.00;4.30;;;;;;;12.27;100.00;99914.28;4992979;28;20232;-62
2022/10/01 08:47:48;;;;;;;12.50;5.50;;;;;;;12.32;100.00;99903.13;4991328;28;20218;-64
2022/10/01 08:50:28;;;;;;;10.90;5.10;;;;;;;12.31;100.00;99883.69;4991545;28;20221;-61
2022/10/01 08:53:01;;;;;;;9.27;4.33;;;;;;;12.31;100.00;99881.03;4990355;28;20210;-63
2022/10/01 08:55:35;;;;;;;7.10;3.20;;;;;;;12.38;100.00;99867.88;4991831;28;20206;-62
2022/10/01 08:58:07;;;;;;;3.90;2.50;;;;;;;12.44;100.00;99867.19;4991726;28;20616;-62
2022/10/01 09:00:39;;;;;;;4.87;2.90;;;;;;;12.43;99.99;99857.53;4991509;28;20265;-62
2022/10/01 09:03:12;;;;;;;4.63;2.37;;;;;;;12.49;100.00;99864.00;4986692;28;20223;-62
2022/10/01 09:05:56;;;;;;;3.63;2.33;;;;;;;12.52;99.62;99869.78;4990640;28;20214;-61
2022/10/01 09:08:42;;;;;;;4.93;2.80;;;;;;;12.54;99.62;99896.22;4987166;28;20247;-62
2022/10/01 09:11:20;;;;;;;6.93;2.77;;;;;;;12.59;99.21;99885.88;4990946;28;20198;-61
2022/10/01 09:14:16;;;;;;;4.40;2.40;;;;;;;12.61;99.39;99897.16;4991283;28;20218;-61
2022/10/01 09:16:50;;;;;;;5.60;2.33;;;;;;;12.70;98.34;99907.59;4990496;28;20210;-61
2022/10/01 09:19:41;;;;;;;4.37;2.50;;;;;;;12.70;98.25;99898.78;4993803;28;20271;-62
2022/10/01 09:22:24;;;;;;;5.23;2.27;;;;;;;12.70;98.72;99899.59;4990319;28;20221;-61
2022/10/01 09:25:01;;;;;;;6.40;1.87;;;;;;;12.72;99.42;99904.75;4990166;28;20651;-61
2022/10/01 09:27:28;;;;;;;5.63;2.37;;;;;;;12.74;99.66;99897.44;4992618;28;20222;-61
2022/10/01 09:30:01;;;;;;;4.50;2.10;;;;;;;12.80;99.42;99891.41;4989991;28;20213;-62
2022/10/01 09:32:33;;;;;;;3.50;1.63;;;;;;;12.83;99.67;99891.06;4990635;28;20640;-60
2022/10/01 09:35:07;;;;;;;5.27;1.63;;;;;;;12.86;99.80;99888.03;4991538;28;20206;-62
2022/10/01 09:37:43;;;;;;;2.10;1.03;;;;;;;12.91;99.13;99900.81;4991192;28;20206;-61
2022/10/01 09:40:18;;;;;;;2.97;1.17;;;;;;;13.02;98.24;99913.69;4984439;28;20202;-61
2022/10/01 09:42:47;;;;;;;2.80;1.10;;;;;;;13.02;97.57;99900.38;4989978;28;20853;-61
2022/10/01 09:45:18;;;;;;;1.33;0.90;;;;;;;13.09;96.45;99893.38;4991245;28;20290;-60
2022/10/01 09:47:49;;;;;;;3.10;0.97;;;;;;;13.11;97.54;99902.81;4991252;28;20213;-61
2022/10/01 09:50:21;;;;;;;3.23;1.33;;;;;;;13.18;96.67;99901.16;4990903;28;20222;-61
2022/10/01 09:52:51;;;;;;;2.73;1.10;;;;;;;13.23;96.23;99900.59;4991381;28;20206;-60
2022/10/01 09:55:28;;;;;;;2.03;1.00;;;;;;;13.34;95.81;99902.84;4990712;28;20218;-62
2022/10/01 09:58:03;;;;;;;2.87;1.07;;;;;;;13.36;95.38;99903.50;4990118;28;20245;-61
2022/10/01 10:00:32;;;;;;;2.43;1.13;;;;;;;13.39;95.67;99908.44;4990941;28;20213;-61
2022/10/01 10:03:00;;;;;;;3.57;0.80;;;;;;;13.45;95.03;99893.59;4994343;28;20754;-63
2022/10/01 10:05:30;;;;;;;2.10;1.17;;;;;;;13.48;95.55;99895.88;4994676;28;20705;-62
2022/10/01 10:08:00;;;;;;;2.40;1.00;;;;;;;13.54;95.50;99908.50;4994445;28;20227;-61
2022/10/01 10:10:34;;;;;;;2.70;1.00;;;;;;;13.62;94.71;99911.09;4993144;28;20274;-61
2022/10/01 10:13:05;;;;;;;2.63;0.90;;;;;;;13.61;94.42;99916.59;4990671;28;20299;-61
2022/10/01 10:15:49;;;;;;;2.27;1.03;;;;;;;13.65;94.06;99921.34;4994292;28;20269;-60
2022/10/01 10:18:26;;;;;;;1.53;0.90;;;;;;;13.65;94.34;99929.34;4994936;28;20220;-61
2022/10/01 10:20:56;;;;;;;1.77;0.80;;;;;;;13.66;94.08;99927.53;4993842;28;20264;-62
2022/10/01 10:23:25;;;;;;;2.00;0.93;;;;;;;13.67;94.21;99930.00;4994509;28;20223;-62
2022/10/01 10:25:58;;;;;;;18.40;1.50;;;;;;;13.70;94.36;99935.00;4993579;28;20219;-61
2022/10/01 10:28:28;;;;;;;1.40;0.93;;;;;;;13.77;93.57;99941.25;4991713;28;20215;-61
2022/10/01 10:30:57;;;;;;;1.73;0.83;;;;;;;13.70;94.00;99934.16;4991043;28;20329;-62
2022/10/01 10:33:26;;;;;;;1.47;1.00;;;;;;;13.70;94.63;99935.00;4993073;28;20244;-62
2022/10/01 10:35:59;;;;;;;1.57;0.80;;;;;;;13.71;94.69;99930.50;4993450;28;20259;-60
2022/10/01 10:38:31;;;;;;;2.13;1.10;;;;;;;13.73;94.75;99937.28;4992791;28;20219;-61
2022/10/01 10:40:59;;;;;;;1.43;0.80;;;;;;;13.82;94.54;99928.19;4985110;28;20609;-63
2022/10/01 10:43:30;;;;;;;1.80;1.00;;;;;;;13.87;93.84;99920.50;4993800;28;20230;-63
2022/10/01 10:45:59;;;;;;;1.90;0.80;;;;;;;13.93;94.17;99927.75;4993698;28;20270;-64
2022/10/01 10:48:32;;;;;;;1.97;0.73;;;;;;;13.99;93.34;99928.00;4993551;28;20289;-62
2022/10/01 10:51:01;;;;;;;1.70;0.70;;;;;;;13.97;93.32;99935.38;4992919;28;20208;-62
2022/10/01 10:53:39;;;;;;;1.70;0.70;;;;;;;14.01;93.07;99937.50;4993301;28;20628;-62
2022/10/01 10:56:18;;;;;;;2.67;0.60;;;;;;;13.94;92.91;99937.41;4992338;28;20733;-62
2022/10/01 10:58:47;;;;;;;1.13;0.70;;;;;;;14.06;92.27;99928.97;4993058;28;20216;-62
2022/10/01 11:01:21;;;;;;;1.87;0.70;;;;;;;14.04;92.36;99938.97;4992790;28;20226;-62
2022/10/01 11:03:54;;;;;;;2.33;0.80;;;;;;;14.00;92.98;99943.00;4993376;28;20232;-61
2022/10/01 11:06:22;;;;;;;1.80;0.90;;;;;;;14.01;92.83;99950.81;4993144;28;20602;-62
2022/10/01 11:08:59;;;;;;;2.20;0.77;;;;;;;14.01;93.08;99952.66;4991813;28;20214;-62
2022/10/01 11:11:49;;;;;;;2.00;0.80;;;;;;;14.00;93.12;99962.47;4991907;28;20211;-63
2022/10/01 11:14:31;;;;;;;3.83;0.90;;;;;;;14.01;93.38;99955.31;4993841;28;20221;-62
2022/10/01 11:17:11;;;;;;;1.37;0.73;;;;;;;13.97;93.58;99962.03;4981487;28;20205;-61
2022/10/01 11:19:51;;;;;;;3.20;1.03;;;;;;;14.05;93.07;99956.63;4993522;28;20224;-61
2022/10/01 11:22:36;;;;;;;2.40;1.00;;;;;;;14.01;94.00;99963.31;4991354;28;20692;-65
2022/10/01 11:25:22;;;;;;;2.20;1.00;;;;;;;14.06;93.98;99969.78;4984744;28;20261;-61
2022/10/01 11:28:02;;;;;;;6.73;1.20;;;;;;;14.06;93.65;99960.94;4989964;28;20216;-61
2022/10/01 11:30:37;;;;;;;3.33;1.40;;;;;;;14.16;92.56;99953.50;4991612;28;20304;-61
2022/10/01 11:33:14;;;;;;;3.13;1.13;;;;;;;14.13;92.40;99952.03;4992078;28;20625;-60
2022/10/01 11:35:52;;;;;;;2.53;1.00;;;;;;;14.11;92.99;99954.03;4991384;28;20582;-62
2022/10/01 11:38:36;;;;;;;2.60;1.10;;;;;;;14.17;92.31;99953.31;4992729;28;20236;-62
2022/10/01 11:41:15;;;;;;;4.90;1.17;;;;;;;14.17;92.31;99952.47;4982795;28;20209;-61
2022/10/01 11:43:46;;;;;;;1.83;1.00;;;;;;;14.21;92.53;99949.28;4991881;28;20243;-61
2022/10/01 11:46:21;;;;;;;3.40;1.10;;;;;;;14.25;92.25;99955.88;4992431;28;20263;-62
2022/10/01 11:48:56;;;;;;;2.43;1.30;;;;;;;14.17;93.05;99963.13;4992470;28;20217;-62
2022/10/01 11:51:30;;;;;;;4.00;1.80;;;;;;;14.23;92.84;99975.75;4990620;28;20224;-62